Time;durP1;ratioP1;P1;durP2;ratioP2;P2;SDS_P1;SDS_P2;PMS_P1;PMS_P2;Temp;Humidity;BMP_temperature;BMP_pressure;BME280_temperature;BME280_humidity;BME280_pressure;Samples;Min_cycle;Max_cycle;Signal;HPM_P1;HPM_P2
2021/12/15 00:00:58;;;;;;;51.63;25.13;;;;;;;;;;5091991;28;20044;-82
2021/12/15 00:03:24;;;;;;;48.42;24.70;;;9.50;99.90;;;;;;5074615;28;20078;-82
2021/12/15 00:05:51;;;;;;;46.08;23.58;;;;;;;;;;5110333;28;20039;-82
2021/12/15 00:08:23;;;;;;;51.30;24.98;;;9.50;99.90;;;;;;5074869;28;20500;-82
2021/12/15 00:10:49;;;;;;;45.10;21.95;;;;;;;;;;5090285;28;20038;-83
2021/12/15 00:13:18;;;;;;;47.85;23.95;;;9.50;99.90;;;;;;5075236;28;20092;-82
2021/12/15 00:15:45;;;;;;;45.58;24.02;;;9.50;99.90;;;;;;5074665;28;20078;-82
2021/12/15 00:18:11;;;;;;;44.88;22.40;;;;;;;;;;5075052;28;20122;-80
2021/12/15 00:20:38;;;;;;;56.42;24.85;;;;;;;;;;5072600;28;20045;-82
2021/12/15 00:23:04;;;;;;;49.13;22.83;;;;;;;;;;5090407;28;20487;-81
2021/12/15 00:25:33;;;;;;;55.78;24.90;;;9.50;99.90;;;;;;5092037;28;20112;-83
2021/12/15 00:27:59;;;;;;;47.65;23.27;;;;;;;;;;5109799;28;20472;-82
2021/12/15 00:30:27;;;;;;;43.47;22.70;;;;;;;;;;5091563;28;20082;-80
2021/12/15 00:32:53;;;;;;;44.90;22.17;;;9.60;99.90;;;;;;5073757;28;20039;-81
2021/12/15 00:35:20;;;;;;;47.13;22.63;;;9.60;99.90;;;;;;5074713;28;20043;-81
2021/12/15 00:37:46;;;;;;;50.90;22.00;;;;;;;;;;5073475;28;20043;-80
2021/12/15 00:40:14;;;;;;;42.63;22.90;;;9.50;99.90;;;;;;5073478;28;20046;-80
2021/12/15 00:42:40;;;;;;;42.33;22.15;;;9.60;99.90;;;;;;5089161;28;20039;-81
2021/12/15 00:45:07;;;;;;;41.20;21.35;;;12.90;99.90;;;;;;5075829;28;20048;-80
2021/12/15 00:47:33;;;;;;;47.17;22.20;;;;;;;;;;5094625;28;20050;-81
2021/12/15 00:50:06;;;;;;;40.78;21.92;;;;;;;;;;5112067;28;20035;-80
2021/12/15 00:52:32;;;;;;;51.28;22.08;;;9.60;99.90;;;;;;5076839;28;20036;-80
2021/12/15 00:55:00;;;;;;;41.28;20.42;;;9.60;99.90;;;;;;5093859;28;20127;-80
2021/12/15 00:57:26;;;;;;;42.03;20.73;;;10.30;99.90;;;;;;5094852;28;20490;-80
2021/12/15 00:59:51;;;;;;;36.90;18.63;;;10.20;99.90;;;;;;5093100;28;20094;-79
2021/12/15 01:02:17;;;;;;;44.50;21.40;;;;;;;;;;5094557;28;20040;-81
2021/12/15 01:04:44;;;;;;;39.63;20.52;;;;;;;;;;5077095;28;20040;-82
2021/12/15 01:07:11;;;;;;;39.13;20.90;;;9.70;99.90;;;;;;5072789;28;20041;-80
2021/12/15 01:09:44;;;;;;;47.45;19.73;;;9.60;99.90;;;;;;5074483;28;20450;-79
2021/12/15 01:20:28;;;;;;;43.15;19.63;;;9.60;99.90;;;;;;5084383;28;20043;-80
2021/12/15 01:22:57;;;;;;;38.85;20.38;;;9.60;99.90;;;;;;5080995;28;20122;-80
2021/12/15 01:25:32;;;;;;;43.05;21.75;;;9.60;99.90;;;;;;5098036;28;20071;-80
2021/12/15 01:27:59;;;;;;;47.83;22.55;;;9.70;99.90;;;;;;5079789;28;20053;-81
2021/12/15 01:30:30;;;;;;;44.85;22.50;;;9.70;99.90;;;;;;5081194;28;20039;-81
2021/12/15 01:32:58;;;;;;;42.08;21.98;;;9.60;99.90;;;;;;5080350;28;20046;-80
2021/12/15 01:35:24;;;;;;;41.03;20.45;;;;;;;;;;5081881;28;20080;-79
2021/12/15 01:37:50;;;;;;;41.60;21.75;;;;;;;;;;5077332;28;20048;-80
2021/12/15 01:40:31;;;;;;;48.38;24.33;;;9.70;99.90;;;;;;5079761;28;20039;-80
2021/12/15 01:42:57;;;;;;;44.53;23.13;;;;;;;;;;5080605;28;20122;-81
2021/12/15 01:48:13;;;;;;;43.65;22.63;;;9.70;99.90;;;;;;5095964;28;20040;-80
2021/12/15 01:50:40;;;;;;;49.22;24.67;;;11.50;99.90;;;;;;5080700;28;20039;-79
2021/12/15 01:53:07;;;;;;;50.67;24.65;;;9.70;99.90;;;;;;5097177;28;20118;-82
2021/12/15 01:55:33;;;;;;;52.78;25.90;;;9.60;99.90;;;;;;5097042;28;20038;-80
2021/12/15 01:57:59;;;;;;;44.15;25.45;;;12.10;99.90;;;;;;5115291;28;20035;-79
2021/12/15 02:00:29;;;;;;;53.63;25.70;;;10.90;99.90;;;;;;5080771;28;20040;-79
2021/12/15 02:02:57;;;;;;;53.53;26.08;;;9.70;99.90;;;;;;5095925;28;20047;-77
2021/12/15 02:05:24;;;;;;;54.78;26.73;;;9.70;99.90;;;;;;5115575;28;20385;-78
2021/12/15 02:07:50;;;;;;;63.58;25.92;;;;;;;;;;5080336;28;20047;-79
2021/12/15 02:10:21;;;;;;;55.38;26.08;;;9.70;99.90;;;;;;5079637;28;20042;-79
2021/12/15 02:12:47;;;;;;;57.58;27.80;;;10.80;99.90;;;;;;5079911;28;20036;-81
2021/12/15 02:15:17;;;;;;;56.70;28.08;;;9.70;99.90;;;;;;5096217;28;20031;-80
2021/12/15 02:17:45;;;;;;;54.33;27.02;;;9.70;99.90;;;;;;5096539;28;20043;-78
2021/12/15 02:20:14;;;;;;;55.58;26.88;;;10.50;99.90;;;;;;5096625;28;20039;-80
2021/12/15 02:22:40;;;;;;;56.33;29.15;;;9.70;99.90;;;;;;5096129;28;20042;-80
2021/12/15 02:25:11;;;;;;;56.20;27.10;;;10.50;99.90;;;;;;5079564;28;20048;-81
2021/12/15 02:27:37;;;;;;;63.00;29.52;;;9.70;99.90;;;;;;5096762;28;20113;-81
2021/12/15 02:38:43;;;;;;;53.80;28.55;;;9.70;99.90;;;;;;5076704;28;20060;-79
2021/12/15 02:41:19;;;;;;;57.83;27.25;;;9.60;99.90;;;;;;5072307;28;20047;-79
2021/12/15 02:43:54;;;;;;;50.03;26.95;;;12.10;99.90;;;;;;5096134;28;20181;-80
2021/12/15 02:46:20;;;;;;;;;;;9.60;99.90;;;;;;5096714;28;20116;-80
2021/12/15 02:48:46;;;;;;;48.00;25.77;;;9.60;99.90;;;;;;5079532;28;20384;-80
2021/12/15 02:51:12;;;;;;;55.28;28.45;;;11.10;99.90;;;;;;5114094;28;20032;-80
2021/12/15 02:53:38;;;;;;;56.95;26.92;;;9.60;99.90;;;;;;5130769;27;20032;-81
2021/12/15 02:56:04;;;;;;;56.75;29.48;;;11.10;99.90;;;;;;5079085;28;20036;-80
2021/12/15 02:58:34;;;;;;;54.38;28.15;;;9.60;99.90;;;;;;5078840;28;20043;-80
2021/12/15 03:01:09;;;;;;;56.63;27.52;;;9.40;99.90;;;;;;5094940;28;20044;-78
2021/12/15 03:06:11;;;;;;;55.92;28.02;;;9.30;99.90;;;;;;5095129;28;20101;-79
2021/12/15 03:16:54;;;;;;;59.85;29.52;;;9.60;99.90;;;;;;5095714;28;20045;-81
2021/12/15 03:19:20;;;;;;;61.03;30.10;;;;;;;;;;5091836;28;20489;-81
2021/12/15 03:21:46;;;;;;;58.75;28.88;;;;;;;;;;5059471;28;20048;-80
2021/12/15 03:24:18;;;;;;;62.92;30.90;;;9.50;99.90;;;;;;5058969;28;20044;-78
2021/12/15 03:26:56;;;;;;;68.90;36.85;;;12.60;99.90;;;;;;5074973;28;20044;-79
2021/12/15 03:37:45;;;;;;;63.35;32.63;;;9.40;99.90;;;;;;5093739;28;20446;-75
2021/12/15 03:40:18;;;;;;;68.88;34.40;;;9.40;99.90;;;;;;5074423;28;20118;-76
2021/12/15 03:42:45;;;;;;;67.82;33.35;;;9.40;99.90;;;;;;5075139;28;20502;-76
2021/12/15 03:45:20;;;;;;;61.13;32.20;;;9.40;99.90;;;;;;5099206;28;20516;-76
2021/12/15 03:47:47;;;;;;;;;;;10.70;99.90;;;;;;5126826;27;20040;-77
2021/12/15 03:50:17;;;;;;;56.85;27.70;;;9.40;99.90;;;;;;5099700;28;20375;-77
2021/12/15 03:52:48;;;;;;;60.60;32.40;;;9.30;99.90;;;;;;5095596;28;20039;-76
2021/12/15 03:55:15;;;;;;;73.47;32.53;;;11.00;99.90;;;;;;5094559;28;20122;-77
2021/12/15 03:57:40;;;;;;;67.43;31.70;;;11.20;99.90;;;;;;5095155;28;20055;-77
2021/12/15 04:00:10;;;;;;;60.03;30.08;;;10.50;99.90;;;;;;5094651;28;20040;-77
2021/12/15 04:02:35;;;;;;;65.35;32.78;;;9.40;99.90;;;;;;5093901;28;20093;-77
2021/12/15 04:05:02;;;;;;;65.05;33.20;;;9.40;99.90;;;;;;5094240;28;20048;-79
2021/12/15 04:07:28;;;;;;;60.03;30.20;;;9.40;99.90;;;;;;5078222;28;20135;-77
2021/12/15 04:09:54;;;;;;;55.88;28.67;;;9.10;99.90;;;;;;5077024;28;20123;-80
2021/12/15 04:12:20;;;;;;;54.42;29.10;;;12.90;99.90;;;;;;5094809;28;20043;-77
2021/12/15 04:14:54;;;;;;;65.95;31.65;;;9.40;99.90;;;;;;5093091;28;20040;-76
2021/12/15 04:17:30;;;;;;;50.60;28.85;;;9.40;99.90;;;;;;5077879;28;20043;-77
2021/12/15 04:19:58;;;;;;;;;;;9.40;99.90;;;;;;5078218;28;20044;-76
2021/12/15 04:22:25;;;;;;;54.83;27.58;;;11.00;99.90;;;;;;5077310;28;19958;-77
2021/12/15 04:24:52;;;;;;;53.38;28.42;;;9.20;99.90;;;;;;5094848;28;20075;-76
2021/12/15 04:27:20;;;;;;;55.72;27.92;;;9.40;99.90;;;;;;5094327;28;20618;-76
2021/12/15 04:29:48;;;;;;;56.03;26.80;;;9.20;99.90;;;;;;5093029;28;20093;-77
2021/12/15 04:32:38;;;;;;;55.42;27.88;;;10.00;99.90;;;;;;5094471;28;20081;-77
2021/12/15 04:35:04;;;;;;;49.65;27.50;;;9.80;99.90;;;;;;5076887;28;20065;-77
2021/12/15 04:37:30;;;;;;;49.00;27.00;;;9.40;99.90;;;;;;5093623;28;20104;-76
2021/12/15 04:39:56;;;;;;;52.83;26.90;;;12.20;99.90;;;;;;5128333;27;20118;-78
2021/12/15 04:42:24;;;;;;;53.03;26.65;;;11.00;99.90;;;;;;5127166;27;20123;-77
2021/12/15 04:44:52;;;;;;;56.60;28.02;;;9.40;99.90;;;;;;5097572;28;20124;-77
2021/12/15 04:47:18;;;;;;;46.58;25.48;;;11.90;99.90;;;;;;5084137;28;20048;-77
2021/12/15 04:49:50;;;;;;;53.20;27.98;;;10.30;99.90;;;;;;5094408;28;20032;-77
2021/12/15 04:52:19;;;;;;;54.30;26.67;;;9.80;99.90;;;;;;5094525;28;20043;-76
2021/12/15 04:54:44;;;;;;;48.33;26.58;;;9.10;99.90;;;;;;5077486;28;20039;-76
2021/12/15 04:57:12;;;;;;;53.05;27.42;;;11.00;99.90;;;;;;5064529;28;20044;-76
2021/12/15 04:59:39;;;;;;;53.65;27.38;;;12.50;99.90;;;;;;5078080;28;20519;-76
2021/12/15 05:02:06;;;;;;;66.65;29.83;;;8.80;99.90;;;;;;5094596;28;20040;-76
2021/12/15 05:04:31;;;;;;;53.70;26.55;;;10.10;99.90;;;;;;5087744;28;20080;-76
2021/12/15 05:06:57;;;;;;;56.55;29.33;;;10.50;99.90;;;;;;5097942;28;20051;-76
2021/12/15 05:09:23;;;;;;;65.38;28.98;;;9.20;99.90;;;;;;5085247;28;20047;-76
2021/12/15 05:11:50;;;;;;;57.92;27.60;;;11.50;99.90;;;;;;5077552;28;20370;-76
2021/12/15 05:14:18;;;;;;;53.83;26.83;;;10.10;99.90;;;;;;5124623;27;20047;-77
2021/12/15 05:16:44;;;;;;;52.90;28.50;;;10.80;99.90;;;;;;5097920;28;20043;-76
2021/12/15 05:19:10;;;;;;;54.13;27.52;;;9.30;99.90;;;;;;5096896;28;20202;-76
2021/12/15 05:21:35;;;;;;;51.08;28.23;;;9.30;99.90;;;;;;5097997;28;20131;-77
2021/12/15 05:24:11;;;;;;;46.00;26.13;;;12.20;99.90;;;;;;5097454;28;20044;-76
2021/12/15 05:26:37;;;;;;;49.72;26.83;;;9.40;99.90;;;;;;5097205;28;20044;-76
2021/12/15 05:29:03;;;;;;;52.78;28.08;;;9.30;99.90;;;;;;5087101;28;20062;-77
2021/12/15 05:31:29;;;;;;;45.83;25.35;;;12.30;99.90;;;;;;5098396;28;20130;-77
2021/12/15 05:33:55;;;;;;;61.28;28.00;;;;;;;;;;5114942;28;20097;-76
2021/12/15 05:36:20;;;;;;;52.70;26.85;;;9.40;99.90;;;;;;5097585;28;20035;-76
2021/12/15 05:38:46;;;;;;;59.30;27.73;;;11.90;99.90;;;;;;5080591;28;20100;-76
2021/12/15 05:41:12;;;;;;;53.45;25.20;;;9.30;99.90;;;;;;5096199;28;20035;-75
2021/12/15 05:43:37;;;;;;;46.85;25.83;;;9.30;99.90;;;;;;5131385;27;20039;-80
2021/12/15 05:46:03;;;;;;;58.42;29.00;;;9.40;99.90;;;;;;5080508;28;20050;-78
2021/12/15 05:48:29;;;;;;;48.15;25.90;;;11.80;99.90;;;;;;5097602;28;20484;-77
2021/12/15 05:50:55;;;;;;;51.22;27.13;;;9.20;99.90;;;;;;5101314;28;20374;-77
2021/12/15 05:53:22;;;;;;;52.70;27.75;;;9.20;99.90;;;;;;5096264;28;20129;-78
2021/12/15 05:55:54;;;;;;;53.30;26.02;;;9.00;99.90;;;;;;5064887;28;20443;-77
2021/12/15 05:58:20;;;;;;;45.17;25.63;;;9.30;99.90;;;;;;5093737;28;20047;-78
2021/12/15 06:00:47;;;;;;;52.22;25.92;;;8.90;99.90;;;;;;5076354;28;20079;-77
2021/12/15 06:03:13;;;;;;;55.97;29.05;;;9.30;99.90;;;;;;5076801;28;20047;-76
2021/12/15 06:05:39;;;;;;;55.75;27.10;;;9.30;99.90;;;;;;5077240;28;20620;-76
2021/12/15 06:08:06;;;;;;;47.15;25.92;;;9.40;99.90;;;;;;5115913;27;20118;-77
2021/12/15 06:10:33;;;;;;;48.60;26.30;;;11.70;99.90;;;;;;5082514;28;20036;-78
2021/12/15 06:13:00;;;;;;;50.92;26.83;;;10.30;99.90;;;;;;5130950;27;20043;-77
2021/12/15 06:15:28;;;;;;;48.25;25.70;;;9.50;99.90;;;;;;5096208;28;20036;-77
2021/12/15 06:18:04;;;;;;;52.72;26.92;;;9.40;99.90;;;;;;5097001;28;20047;-78
2021/12/15 06:20:31;;;;;;;59.05;30.42;;;9.20;99.90;;;;;;5079679;28;20075;-78
2021/12/15 06:23:00;;;;;;;50.55;27.27;;;9.30;99.90;;;;;;5095560;28;20050;-77
2021/12/15 06:25:26;;;;;;;49.42;28.40;;;12.50;99.90;;;;;;5092428;28;20037;-78
2021/12/15 06:27:52;;;;;;;58.88;28.02;;;9.20;99.90;;;;;;5095903;28;20109;-77
2021/12/15 06:30:18;;;;;;;60.53;28.30;;;10.20;99.90;;;;;;5095789;28;20047;-77
2021/12/15 06:32:43;;;;;;;55.10;28.55;;;8.90;99.90;;;;;;5096935;28;20046;-78
2021/12/15 06:35:10;;;;;;;55.15;26.88;;;9.80;99.90;;;;;;5096260;28;20472;-78
2021/12/15 06:37:37;;;;;;;57.30;26.67;;;9.60;99.90;;;;;;5096586;28;20423;-77
2021/12/15 06:40:07;;;;;;;53.58;26.30;;;11.20;99.90;;;;;;5078967;28;20116;-77
2021/12/15 06:42:37;;;;;;;47.45;26.77;;;9.60;99.90;;;;;;5095839;28;20036;-77
2021/12/15 06:45:05;;;;;;;43.28;23.73;;;10.20;99.90;;;;;;5096622;28;20080;-79
2021/12/15 06:58:28;;;;;;;42.38;21.77;;;9.60;99.90;;;;;;5075451;28;20055;-78
2021/12/15 07:00:57;;;;;;;39.53;20.88;;;10.40;99.90;;;;;;5080500;28;20039;-79
2021/12/15 07:03:24;;;;;;;40.53;20.00;;;11.60;99.90;;;;;;5096058;28;20043;-79
2021/12/15 07:05:51;;;;;;;34.38;19.98;;;;;;;;;;5113705;28;20514;-78
2021/12/15 07:08:17;;;;;;;38.47;19.35;;;9.60;99.90;;;;;;5095438;28;20044;-78
2021/12/15 07:10:47;;;;;;;38.30;18.67;;;11.90;99.90;;;;;;5095309;28;20391;-78
2021/12/15 07:13:14;;;;;;;37.00;19.38;;;10.50;99.90;;;;;;5079353;28;20084;-78
2021/12/15 07:15:40;;;;;;;38.42;18.90;;;9.50;99.90;;;;;;5079218;28;20074;-78
2021/12/15 07:18:09;;;;;;;42.22;20.52;;;9.70;99.90;;;;;;5094790;28;20039;-79
2021/12/15 07:20:49;;;;;;;32.33;17.48;;;10.00;99.90;;;;;;5078455;28;20505;-78
2021/12/15 07:23:21;;;;;;;33.45;18.80;;;9.50;99.90;;;;;;5094202;28;20044;-78
2021/12/15 07:25:49;;;;;;;34.70;18.08;;;10.80;99.90;;;;;;5095043;28;20055;-79
2021/12/15 07:28:18;;;;;;;44.20;18.77;;;9.60;99.90;;;;;;5095912;28;20058;-78
2021/12/15 07:30:44;;;;;;;27.77;15.93;;;9.60;99.90;;;;;;5079042;28;20043;-79
2021/12/15 07:33:10;;;;;;;36.33;17.10;;;10.20;99.90;;;;;;5094825;28;20051;-78
2021/12/15 07:35:37;;;;;;;29.67;16.25;;;9.70;99.90;;;;;;5095998;28;20039;-78
2021/12/15 07:38:09;;;;;;;31.45;17.80;;;9.50;99.90;;;;;;5077573;28;20096;-77
2021/12/15 07:40:37;;;;;;;35.08;17.42;;;10.10;99.90;;;;;;5077951;28;20107;-78
2021/12/15 07:43:09;;;;;;;30.08;15.60;;;9.60;99.90;;;;;;5093370;28;20165;-80
2021/12/15 07:45:42;;;;;;;33.22;15.77;;;10.10;99.90;;;;;;5095708;28;20485;-80
2021/12/15 07:48:10;;;;;;;27.02;14.35;;;9.90;99.90;;;;;;5095467;28;20039;-78
2021/12/15 07:50:38;;;;;;;26.25;14.07;;;10.20;99.90;;;;;;5095198;28;20036;-77
2021/12/15 07:53:06;;;;;;;27.75;14.20;;;10.50;99.90;;;;;;5094080;28;20035;-78
2021/12/15 07:55:32;;;;;;;26.33;13.38;;;9.30;99.90;;;;;;5095343;28;20437;-78
2021/12/15 07:57:58;;;;;;;26.02;13.57;;;10.30;99.90;;;;;;5094636;28;20511;-80
2021/12/15 08:00:24;;;;;;;23.33;13.32;;;10.90;99.90;;;;;;5094075;28;20040;-78
2021/12/15 08:02:51;;;;;;;30.02;14.68;;;11.20;99.90;;;;;;5095236;28;20047;-78
2021/12/15 08:05:18;;;;;;;28.15;12.50;;;9.70;99.90;;;;;;5077346;28;20043;-79
2021/12/15 08:07:43;;;;;;;27.45;12.85;;;10.90;99.90;;;;;;5094793;28;20044;-78
2021/12/15 08:10:11;;;;;;;31.95;14.07;;;9.40;99.90;;;;;;5094760;28;20121;-78
2021/12/15 08:12:38;;;;;;;20.05;12.15;;;9.40;99.90;;;;;;5095310;28;20043;-78
2021/12/15 08:15:07;;;;;;;22.20;10.80;;;9.40;99.90;;;;;;5093909;28;20032;-77
2021/12/15 08:17:33;;;;;;;22.02;11.35;;;9.50;99.90;;;;;;5078230;28;20035;-78
2021/12/15 08:19:59;;;;;;;20.30;11.18;;;10.20;99.90;;;;;;5094627;28;20043;-77
2021/12/15 08:22:25;;;;;;;22.63;12.32;;;9.40;99.90;;;;;;5077103;28;20047;-78
2021/12/15 08:24:51;;;;;;;24.40;11.70;;;12.10;99.90;;;;;;5094774;28;20385;-78
2021/12/15 08:27:16;;;;;;;24.08;11.57;;;9.90;99.90;;;;;;5074161;28;20059;-79
2021/12/15 08:29:42;;;;;;;25.38;11.35;;;9.80;99.90;;;;;;5090639;28;20048;-78
2021/12/15 08:32:08;;;;;;;23.50;11.02;;;10.50;99.90;;;;;;5090295;28;20492;-79
2021/12/15 08:34:33;;;;;;;23.33;11.25;;;9.40;99.90;;;;;;5074605;28;20040;-78
2021/12/15 08:36:59;;;;;;;22.95;12.40;;;10.30;99.90;;;;;;5091642;28;20043;-78
2021/12/15 08:39:25;;;;;;;21.20;11.48;;;10.80;99.90;;;;;;5110215;28;20502;-77
2021/12/15 08:41:50;;;;;;;24.50;13.32;;;11.80;99.90;;;;;;5094464;28;20063;-78
2021/12/15 08:44:16;;;;;;;25.85;13.50;;;9.50;99.90;;;;;;5094162;28;20039;-78
2021/12/15 08:46:45;;;;;;;30.40;13.57;;;9.50;99.90;;;;;;5094204;28;20067;-78
2021/12/15 08:49:16;;;;;;;26.40;14.15;;;9.30;99.90;;;;;;5089689;28;20047;-78
2021/12/15 08:51:43;;;;;;;30.08;14.88;;;9.20;99.90;;;;;;5094843;28;20127;-78
2021/12/15 08:54:14;;;;;;;28.38;15.10;;;11.10;99.90;;;;;;5091107;28;20035;-78
2021/12/15 08:56:41;;;;;;;26.30;14.65;;;9.30;99.90;;;;;;5094799;28;20404;-78
2021/12/15 08:59:28;;;;;;;31.85;15.20;;;9.50;99.90;;;;;;5076578;28;20044;-78
2021/12/15 09:01:54;;;;;;;29.23;15.50;;;9.40;99.90;;;;;;5076016;28;20043;-80
2021/12/15 09:04:21;;;;;;;31.15;14.88;;;11.00;99.90;;;;;;5076843;28;20043;-78
2021/12/15 09:06:48;;;;;;;29.10;15.93;;;9.40;99.90;;;;;;5094298;28;20047;-79
2021/12/15 09:09:20;;;;;;;34.28;16.33;;;11.30;99.90;;;;;;5093931;28;20403;-81
2021/12/15 09:11:48;;;;;;;34.33;15.38;;;9.40;99.90;;;;;;5076323;28;20122;-75
2021/12/15 09:14:14;;;;;;;27.13;15.70;;;9.40;99.90;;;;;;5073774;28;20044;-80
2021/12/15 09:16:44;;;;;;;28.55;15.23;;;9.50;99.90;;;;;;5093295;28;20043;-80
2021/12/15 09:19:10;;;;;;;32.83;16.20;;;9.50;99.90;;;;;;5094399;28;20373;-82
2021/12/15 09:21:44;;;;;;;31.52;15.60;;;9.50;99.90;;;;;;5073066;28;20100;-83
2021/12/15 09:24:11;;;;;;;33.60;15.45;;;9.40;99.90;;;;;;5072861;28;20040;-81
2021/12/15 09:26:37;;;;;;;32.60;15.95;;;9.90;99.90;;;;;;5073378;28;20048;-81
2021/12/15 09:29:04;;;;;;;32.30;15.30;;;9.40;99.90;;;;;;5078860;28;20047;-83
2021/12/15 09:31:31;;;;;;;27.08;14.43;;;9.90;99.90;;;;;;5075944;28;20496;-77
2021/12/15 09:33:59;;;;;;;30.00;14.77;;;9.80;99.90;;;;;;5075440;28;20047;-80
2021/12/15 09:36:27;;;;;;;29.85;14.15;;;9.60;99.90;;;;;;5076005;28;20054;-82
2021/12/15 09:38:59;;;;;;;26.58;13.35;;;10.50;99.90;;;;;;5093736;28;20062;-78
2021/12/15 09:41:30;;;;;;;26.00;13.57;;;9.60;99.90;;;;;;5093976;28;20040;-79
2021/12/15 09:43:59;;;;;;;24.63;12.07;;;9.70;99.90;;;;;;5097176;28;20051;-79
2021/12/15 09:46:39;;;;;;;23.70;12.15;;;11.10;99.90;;;;;;5079250;28;20032;-79
2021/12/15 09:57:31;;;;;;;29.17;12.45;;;10.00;99.90;;;;;;5097140;28;20036;-79
2021/12/15 10:05:26;;;;;;;20.85;11.98;;;9.80;99.90;;;;;;5097233;28;20519;-78
2021/12/15 10:19:29;;;;;;;21.83;12.30;;;10.70;99.90;;;;;;5096943;28;20047;-77
2021/12/15 10:22:25;;;;;;;22.13;12.98;;;9.90;99.90;;;;;;5097159;28;20552;-76
2021/12/15 10:24:54;;;;;;;26.92;13.38;;;;;;;;;;5096703;28;20054;-77
2021/12/15 10:27:40;;;;;;;21.67;11.90;;;;;;;;;;5079777;28;20139;-79
2021/12/15 10:30:16;;;;;;;22.42;12.40;;;10.00;99.90;;;;;;5075974;28;20044;-79
2021/12/15 10:32:43;;;;;;;;;;;10.20;99.90;;;;;;5081612;28;20035;-77
2021/12/15 10:35:13;;;;;;;20.10;11.23;;;10.40;99.90;;;;;;5096059;28;19922;-76
2021/12/15 10:37:40;;;;;;;20.90;12.20;;;10.50;99.90;;;;;;5077360;28;20045;-76
2021/12/15 10:40:19;;;;;;;22.00;10.95;;;10.40;99.90;;;;;;5096124;28;20046;-78
2021/12/15 10:42:46;;;;;;;19.90;10.50;;;10.20;99.90;;;;;;5080152;28;20054;-78
2021/12/15 10:45:13;;;;;;;20.58;12.00;;;;;;;;;;5079529;28;20044;-78
2021/12/15 10:47:50;;;;;;;25.90;10.90;;;10.00;99.90;;;;;;5070629;28;20511;-72
2021/12/15 10:50:20;;;;;;;19.55;10.75;;;10.00;99.90;;;;;;5090448;28;20547;-71
2021/12/15 10:52:57;;;;;;;20.65;9.73;;;11.80;99.90;;;;;;5071661;28;20031;-71
2021/12/15 10:55:32;;;;;;;15.80;9.52;;;10.00;99.90;;;;;;5071353;28;20043;-74
2021/12/15 10:58:00;;;;;;;17.98;8.95;;;9.70;99.90;;;;;;5081370;28;20047;-73
2021/12/15 11:00:35;;;;;;;20.85;12.00;;;10.40;99.90;;;;;;5075162;28;20030;-72
2021/12/15 11:03:03;;;;;;;39.15;24.25;;;11.90;99.90;;;;;;5082806;28;20051;-73
2021/12/15 11:05:29;;;;;;;27.25;16.83;;;9.90;99.90;;;;;;5088027;28;20092;-73
2021/12/15 11:07:58;;;;;;;20.27;8.73;;;10.10;99.90;;;;;;5076616;28;20442;-73
2021/12/15 11:10:29;;;;;;;12.85;8.25;;;9.90;99.90;;;;;;5092663;28;20043;-73
2021/12/15 11:13:17;;;;;;;16.23;8.10;;;10.20;99.90;;;;;;5090490;28;20555;-73
2021/12/15 11:15:49;;;;;;;17.88;7.53;;;10.30;99.90;;;;;;5092419;28;20101;-73
2021/12/15 11:18:27;;;;;;;13.23;6.68;;;10.10;99.90;;;;;;5075645;28;20050;-73
2021/12/15 11:20:56;;;;;;;11.55;6.50;;;10.20;99.90;;;;;;5090803;28;20488;-72
2021/12/15 11:23:25;;;;;;;13.63;6.63;;;10.70;99.90;;;;;;5076022;28;20051;-76
2021/12/15 11:25:56;;;;;;;10.73;4.95;;;9.90;99.90;;;;;;5092534;28;20043;-73
2021/12/15 11:28:30;;;;;;;9.00;4.32;;;10.20;99.90;;;;;;5075336;28;20424;-72
2021/12/15 11:30:57;;;;;;;10.73;4.45;;;12.40;99.90;;;;;;5092489;28;20039;-74
2021/12/15 11:33:33;;;;;;;11.27;4.70;;;12.00;99.90;;;;;;5076250;28;20472;-74
2021/12/15 11:36:07;;;;;;;9.20;4.07;;;10.30;99.90;;;;;;5093417;28;20044;-74
2021/12/15 11:38:46;;;;;;;9.70;4.07;;;10.20;99.90;;;;;;5092712;28;20075;-75
2021/12/15 11:41:24;;;;;;;13.50;4.22;;;11.80;99.90;;;;;;5092579;28;20039;-75
2021/12/15 11:43:51;;;;;;;9.18;3.75;;;11.20;99.90;;;;;;5078150;28;20043;-76
2021/12/15 11:46:22;;;;;;;7.65;3.00;;;12.80;99.90;;;;;;5091819;28;20046;-71
2021/12/15 11:48:51;;;;;;;9.05;3.05;;;10.30;99.90;;;;;;5091348;28;20043;-72
2021/12/15 11:51:38;;;;;;;8.95;2.92;;;10.00;99.90;;;;;;5087475;28;20067;-73
2021/12/15 11:54:21;;;;;;;8.60;3.08;;;10.30;99.90;;;;;;5067771;28;20084;-74
2021/12/15 11:57:08;;;;;;;9.80;2.88;;;10.20;99.90;;;;;;5087669;28;20573;-74
2021/12/15 11:59:43;;;;;;;7.97;3.15;;;9.90;99.90;;;;;;5066919;28;20198;-76
2021/12/15 12:02:24;;;;;;;8.07;3.13;;;10.20;99.90;;;;;;5094119;28;20048;-79
2021/12/15 12:05:12;;;;;;;7.07;2.55;;;11.70;99.90;;;;;;5077611;28;20039;-79
2021/12/15 12:07:43;;;;;;;6.47;2.25;;;10.30;99.90;;;;;;5077550;28;20050;-79
2021/12/15 12:10:21;;;;;;;13.48;3.28;;;11.00;99.90;;;;;;5094217;28;20042;-77
2021/12/15 12:12:53;;;;;;;13.25;3.30;;;10.30;99.90;;;;;;5093344;28;20043;-79
2021/12/15 12:15:23;;;;;;;12.80;3.83;;;10.00;99.90;;;;;;5100832;27;20036;-76
2021/12/15 12:17:51;;;;;;;17.17;4.03;;;10.10;99.90;;;;;;5092408;28;20126;-78
2021/12/15 12:20:29;;;;;;;10.55;3.45;;;10.10;99.90;;;;;;5089595;28;20130;-77
2021/12/15 12:22:57;;;;;;;5.30;2.25;;;10.20;99.90;;;;;;5075409;28;20062;-75
2021/12/15 12:25:29;;;;;;;5.47;1.65;;;9.80;99.90;;;;;;5093284;28;20130;-76
2021/12/15 12:27:57;;;;;;;7.05;2.22;;;9.80;99.90;;;;;;5089625;28;20056;-76
2021/12/15 12:30:30;;;;;;;4.85;1.88;;;9.70;99.90;;;;;;5075117;28;20141;-75
2021/12/15 12:32:57;;;;;;;5.05;2.20;;;10.40;99.90;;;;;;5091151;28;20488;-76
2021/12/15 12:35:26;;;;;;;6.13;2.80;;;9.60;99.90;;;;;;5074628;28;20127;-76
2021/12/15 12:37:56;;;;;;;7.45;2.30;;;10.10;99.90;;;;;;5074135;28;20043;-76
2021/12/15 12:40:33;;;;;;;5.03;1.90;;;9.50;99.90;;;;;;5091117;28;20126;-78
2021/12/15 12:42:59;;;;;;;5.18;2.15;;;10.10;99.90;;;;;;5085177;28;20407;-78
2021/12/15 12:45:40;;;;;;;7.03;1.73;;;10.00;99.90;;;;;;5091615;28;20166;-76
2021/12/15 12:59:49;;;;;;;8.32;2.22;;;11.50;99.90;;;;;;5090896;28;20638;-76
2021/12/15 13:02:29;;;;;;;5.78;1.80;;;10.10;99.90;;;;;;5083344;28;20122;-75
2021/12/15 13:04:56;;;;;;;6.28;1.92;;;11.20;99.90;;;;;;5070876;28;20088;-75
2021/12/15 13:07:48;;;;;;;5.45;1.85;;;9.60;99.90;;;;;;5074886;28;20134;-75
2021/12/15 13:10:18;;;;;;;4.97;1.85;;;10.00;99.90;;;;;;5089982;28;20105;-76
2021/12/15 13:12:47;;;;;;;5.57;2.03;;;9.80;99.90;;;;;;5097242;28;20032;-75
2021/12/15 13:15:22;;;;;;;4.07;1.70;;;;;;;;;;5076787;28;20036;-78
2021/12/15 13:18:03;;;;;;;5.88;2.08;;;9.70;99.90;;;;;;5084641;28;20437;-76
2021/12/15 13:20:32;;;;;;;8.98;2.90;;;11.00;99.90;;;;;;5079810;28;20040;-77
2021/12/15 13:23:29;;;;;;;11.65;2.45;;;9.30;99.90;;;;;;5077141;28;20044;-76
2021/12/15 13:28:49;;;;;;;10.35;2.97;;;9.40;99.90;;;;;;5094487;28;20048;-76
2021/12/15 13:31:25;;;;;;;6.70;2.30;;;10.80;99.90;;;;;;5093673;28;20044;-77
2021/12/15 13:33:59;;;;;;;6.05;2.30;;;9.50;99.90;;;;;;5077550;28;20047;-77
2021/12/15 13:36:38;;;;;;;8.48;2.88;;;9.50;99.90;;;;;;5111634;28;20034;-74
2021/12/15 13:39:08;;;;;;;9.38;2.67;;;9.50;99.90;;;;;;5076433;28;20036;-74
2021/12/15 13:44:02;;;;;;;7.32;2.03;;;9.20;99.90;;;;;;5094192;28;20048;-71
2021/12/15 13:46:27;;;;;;;5.45;1.73;;;9.50;99.90;;;;;;5077074;28;20043;-70
2021/12/15 13:49:03;;;;;;;5.55;1.95;;;9.20;99.90;;;;;;5077100;28;20043;-72
2021/12/15 13:51:53;;;;;;;12.30;3.08;;;9.60;99.90;;;;;;5078294;28;20370;-72
2021/12/15 13:54:43;;;;;;;7.20;2.63;;;9.70;99.90;;;;;;5096689;28;20159;-73
2021/12/15 13:57:12;;;;;;;7.53;1.75;;;9.70;99.90;;;;;;5130419;27;20480;-73
2021/12/15 13:59:42;;;;;;;7.68;2.65;;;9.90;99.90;;;;;;5096468;28;20046;-73
2021/12/15 14:02:25;;;;;;;6.28;1.70;;;9.80;99.90;;;;;;5097132;28;20047;-72
2021/12/15 14:04:54;;;;;;;5.45;1.83;;;10.10;99.90;;;;;;5080013;28;20376;-75
2021/12/15 14:07:40;;;;;;;5.80;1.35;;;11.30;99.90;;;;;;5096778;28;20407;-73
2021/12/15 14:10:12;;;;;;;4.22;1.80;;;9.90;99.90;;;;;;5097016;28;20495;-72
2021/12/15 14:12:47;;;;;;;6.35;1.90;;;9.70;99.90;;;;;;5096519;28;20492;-73
2021/12/15 14:15:36;;;;;;;5.38;2.25;;;10.00;99.90;;;;;;5096725;28;20043;-75
2021/12/15 14:18:04;;;;;;;5.63;1.88;;;9.50;99.90;;;;;;5095772;28;20039;-72
2021/12/15 14:20:32;;;;;;;5.72;1.65;;;9.60;99.90;;;;;;5096152;28;20464;-74
2021/12/15 14:23:04;;;;;;;7.35;1.65;;;9.90;99.90;;;;;;5096598;28;20384;-68
2021/12/15 14:25:34;;;;;;;8.25;2.05;;;9.60;99.90;;;;;;5097004;28;20051;-72
2021/12/15 14:28:16;;;;;;;7.95;2.60;;;9.50;99.90;;;;;;5091015;28;20097;-73
2021/12/15 14:30:45;;;;;;;5.95;1.75;;;10.00;99.90;;;;;;5093295;28;20071;-74